createdAt,value
2019-06-08T00:10:03.935Z,16.56
2019-06-08T00:21:06.034Z,16.66
2019-06-08T00:32:06.446Z,16.34
2019-06-08T00:43:04.449Z,16.12
2019-06-08T00:54:05.116Z,16.12
2019-06-08T01:05:08.892Z,15.94
2019-06-08T01:16:05.493Z,15.68
2019-06-08T01:27:07.949Z,15.55
2019-06-08T01:38:08.129Z,15.33
2019-06-08T01:49:10.166Z,15.20
2019-06-08T02:00:34.767Z,15.20
2019-06-08T02:11:22.039Z,14.95
2019-06-08T02:22:22.129Z,14.80
2019-06-08T02:33:20.470Z,14.83
2019-06-08T02:44:19.564Z,14.88
2019-06-08T02:55:21.317Z,14.95
2019-06-08T03:06:19.692Z,15.01
2019-06-08T03:17:19.045Z,15.03
2019-06-08T03:28:18.148Z,15.81
2019-06-08T03:39:18.450Z,15.42
2019-06-08T03:50:16.207Z,15.57
2019-06-08T04:01:14.197Z,15.53
2019-06-08T04:12:12.741Z,15.68
2019-06-08T04:23:11.083Z,16.20
2019-06-08T04:34:10.485Z,17.17
2019-06-08T04:45:08.400Z,17.13
2019-06-08T04:56:11.094Z,18.35
2019-06-08T05:07:10.939Z,18.84
2019-06-08T05:18:07.851Z,19.06
2019-06-08T05:29:08.071Z,19.86
2019-06-08T05:40:10.470Z,20.57
2019-06-08T05:51:07.655Z,21.33
2019-06-08T06:02:08.533Z,22.02
2019-06-08T06:13:04.681Z,22.79
2019-06-08T06:24:04.433Z,23.00
2019-06-08T06:35:05.810Z,23.24
2019-06-08T06:46:03.816Z,23.63
2019-06-08T06:57:06.158Z,23.86
2019-06-08T07:08:10.247Z,23.95
2019-06-08T07:19:12.330Z,24.15
2019-06-08T07:30:16.761Z,24.26
2019-06-08T07:41:16.449Z,24.38
2019-06-08T07:52:14.172Z,24.45
2019-06-08T08:03:12.512Z,24.66
2019-06-08T08:14:10.034Z,24.90
2019-06-08T08:25:11.239Z,25.10
2019-06-08T08:36:10.779Z,25.41
2019-06-08T08:47:07.836Z,25.71
2019-06-08T08:58:11.977Z,26.05
2019-06-08T09:09:11.375Z,26.27
2019-06-08T09:20:15.887Z,26.57
2019-06-08T09:31:21.868Z,26.94
2019-06-08T09:42:23.184Z,27.20
2019-06-08T09:53:28.532Z,27.45
2019-06-08T10:04:31.501Z,27.44
2019-06-08T10:15:29.897Z,26.97
2019-06-08T10:26:27.988Z,26.80
2019-06-08T10:37:31.115Z,27.02
2019-06-08T10:48:31.253Z,26.61
2019-06-08T10:59:29.749Z,26.40
2019-06-08T11:10:37.278Z,28.59
2019-06-08T11:21:39.631Z,29.58
2019-06-08T11:32:38.326Z,28.11
2019-06-08T11:43:38.010Z,28.31
2019-06-08T11:54:40.992Z,28.10
2019-06-08T12:05:42.339Z,26.50
2019-06-08T12:16:43.632Z,26.42
2019-06-08T12:27:45.074Z,27.07
2019-06-08T12:38:49.038Z,26.79
2019-06-08T12:49:48.899Z,26.20
2019-06-08T13:00:53.271Z,29.23
2019-06-08T13:11:59.428Z,28.07
2019-06-08T13:23:00.454Z,31.02
2019-06-08T13:34:07.812Z,30.15
2019-06-08T13:45:08.469Z,30.50
2019-06-08T13:56:02.535Z,28.06
2019-06-08T14:07:09.170Z,29.28
2019-06-08T14:18:08.492Z,27.38
2019-06-08T14:29:09.511Z,26.58
2019-06-08T14:40:10.682Z,26.98
2019-06-08T14:51:10.721Z,25.97
2019-06-08T15:02:13.410Z,25.86
2019-06-08T15:13:15.494Z,25.71
2019-06-08T15:24:18.392Z,25.83
2019-06-08T15:35:21.121Z,25.40
2019-06-08T15:46:18.370Z,25.62
2019-06-08T15:57:22.945Z,25.47
2019-06-08T16:08:25.934Z,25.25
2019-06-08T16:19:23.369Z,25.32
2019-06-08T16:30:24.505Z,24.91
2019-06-08T16:41:29.809Z,24.67
2019-06-08T16:52:30.707Z,24.19
2019-06-08T17:03:28.736Z,24.11
2019-06-08T17:14:25.236Z,24.07
2019-06-08T17:25:26.577Z,23.95
2019-06-08T17:36:27.197Z,23.68
2019-06-08T17:47:28.493Z,23.65
2019-06-08T17:58:29.937Z,23.48
2019-06-08T18:09:33.846Z,23.12
2019-06-08T18:20:32.143Z,23.04
2019-06-08T18:31:31.101Z,22.77
2019-06-08T18:42:29.346Z,22.63
2019-06-08T18:53:30.840Z,22.46
2019-06-08T19:04:31.938Z,22.28
2019-06-08T19:15:31.736Z,22.02
2019-06-08T19:26:28.213Z,21.75
2019-06-08T19:37:32.808Z,21.45
2019-06-08T19:48:42.747Z,20.90
2019-06-08T19:59:47.569Z,20.51
2019-06-08T20:10:50.794Z,20.15
2019-06-08T20:21:51.662Z,20.01
2019-06-08T20:32:52.434Z,19.72
2019-06-08T20:43:54.741Z,19.13
2019-06-08T20:54:58.085Z,18.71
2019-06-08T21:06:01.212Z,18.44
2019-06-08T21:17:00.054Z,18.13
2019-06-08T21:28:00.698Z,17.87
2019-06-08T21:39:03.958Z,17.53
2019-06-08T21:50:05.204Z,17.39
2019-06-08T22:01:07.422Z,17.50
2019-06-08T22:12:08.781Z,17.48
2019-06-08T22:23:11.352Z,17.64
2019-06-08T22:34:17.491Z,17.73
2019-06-08T22:45:19.710Z,17.77
2019-06-08T22:56:19.798Z,17.96
2019-06-08T23:07:29.145Z,18.02
2019-06-08T23:18:26.081Z,18.02
2019-06-08T23:29:27.364Z,18.09
2019-06-08T23:40:31.113Z,18.11
2019-06-08T23:51:32.686Z,18.11
